sensor_id;sensor_type;location;lat;lon;timestamp;P1;durP1;ratioP1;P2;durP2;ratioP2
38262;SDS011;24054;50.128;19.730;2022-11-13T00:01:06;78.57;;;40.50;;
38262;SDS011;24054;50.128;19.730;2022-11-13T00:03:34;71.32;;;37.00;;
38262;SDS011;24054;50.128;19.730;2022-11-13T00:06:02;70.07;;;37.13;;
38262;SDS011;24054;50.128;19.730;2022-11-13T00:08:30;66.93;;;36.30;;
38262;SDS011;24054;50.128;19.730;2022-11-13T00:11:00;72.45;;;36.03;;
38262;SDS011;24054;50.128;19.730;2022-11-13T00:13:28;70.32;;;36.70;;
38262;SDS011;24054;50.128;19.730;2022-11-13T00:15:56;73.78;;;38.85;;
38262;SDS011;24054;50.128;19.730;2022-11-13T00:18:25;64.07;;;34.83;;
38262;SDS011;24054;50.128;19.730;2022-11-13T00:20:52;69.93;;;36.30;;
38262;SDS011;24054;50.128;19.730;2022-11-13T00:23:20;63.17;;;35.22;;
38262;SDS011;24054;50.128;19.730;2022-11-13T00:25:48;68.90;;;35.40;;
38262;SDS011;24054;50.128;19.730;2022-11-13T00:28:15;71.10;;;36.65;;
38262;SDS011;24054;50.128;19.730;2022-11-13T00:30:42;67.47;;;35.17;;
38262;SDS011;24054;50.128;19.730;2022-11-13T00:33:09;60.78;;;33.65;;
38262;SDS011;24054;50.128;19.730;2022-11-13T00:35:36;59.97;;;33.97;;
38262;SDS011;24054;50.128;19.730;2022-11-13T00:38:03;63.85;;;34.20;;
38262;SDS011;24054;50.128;19.730;2022-11-13T00:40:31;61.65;;;32.08;;
38262;SDS011;24054;50.128;19.730;2022-11-13T00:42:58;58.28;;;32.25;;
38262;SDS011;24054;50.128;19.730;2022-11-13T00:45:25;55.70;;;30.95;;
38262;SDS011;24054;50.128;19.730;2022-11-13T00:47:52;58.05;;;32.13;;
38262;SDS011;24054;50.128;19.730;2022-11-13T00:50:19;55.53;;;31.10;;
38262;SDS011;24054;50.128;19.730;2022-11-13T00:52:46;52.95;;;30.38;;
38262;SDS011;24054;50.128;19.730;2022-11-13T00:55:13;55.28;;;31.02;;
38262;SDS011;24054;50.128;19.730;2022-11-13T00:57:41;55.95;;;30.60;;
38262;SDS011;24054;50.128;19.730;2022-11-13T01:00:09;48.13;;;29.75;;
38262;SDS011;24054;50.128;19.730;2022-11-13T01:02:37;51.90;;;30.52;;
38262;SDS011;24054;50.128;19.730;2022-11-13T01:05:04;53.13;;;29.85;;
38262;SDS011;24054;50.128;19.730;2022-11-13T01:07:31;51.90;;;29.85;;
38262;SDS011;24054;50.128;19.730;2022-11-13T01:10:01;52.50;;;29.25;;
38262;SDS011;24054;50.128;19.730;2022-11-13T01:12:28;54.33;;;29.63;;
38262;SDS011;24054;50.128;19.730;2022-11-13T01:14:57;51.75;;;28.45;;
38262;SDS011;24054;50.128;19.730;2022-11-13T01:17:24;54.17;;;29.50;;
38262;SDS011;24054;50.128;19.730;2022-11-13T01:19:52;50.67;;;27.83;;
38262;SDS011;24054;50.128;19.730;2022-11-13T01:22:19;51.78;;;28.73;;
38262;SDS011;24054;50.128;19.730;2022-11-13T01:24:46;47.80;;;26.85;;
38262;SDS011;24054;50.128;19.730;2022-11-13T01:27:13;46.38;;;27.52;;
38262;SDS011;24054;50.128;19.730;2022-11-13T01:29:40;48.53;;;27.52;;
38262;SDS011;24054;50.128;19.730;2022-11-13T01:32:09;47.40;;;27.30;;
38262;SDS011;24054;50.128;19.730;2022-11-13T01:34:36;46.30;;;26.58;;
38262;SDS011;24054;50.128;19.730;2022-11-13T01:37:03;45.67;;;26.30;;
38262;SDS011;24054;50.128;19.730;2022-11-13T01:39:30;48.03;;;27.65;;
38262;SDS011;24054;50.128;19.730;2022-11-13T01:41:57;50.72;;;27.40;;
38262;SDS011;24054;50.128;19.730;2022-11-13T01:44:24;47.20;;;27.65;;
38262;SDS011;24054;50.128;19.730;2022-11-13T01:46:52;45.35;;;26.63;;
38262;SDS011;24054;50.128;19.730;2022-11-13T01:49:26;43.85;;;26.02;;
38262;SDS011;24054;50.128;19.730;2022-11-13T01:51:56;49.35;;;25.02;;
38262;SDS011;24054;50.128;19.730;2022-11-13T01:54:26;42.13;;;25.33;;
38262;SDS011;24054;50.128;19.730;2022-11-13T01:56:56;42.28;;;24.95;;
38262;SDS011;24054;50.128;19.730;2022-11-13T01:59:25;42.58;;;25.40;;
38262;SDS011;24054;50.128;19.730;2022-11-13T02:01:54;40.03;;;24.60;;
38262;SDS011;24054;50.128;19.730;2022-11-13T02:04:21;42.72;;;24.58;;
38262;SDS011;24054;50.128;19.730;2022-11-13T02:06:51;41.58;;;24.05;;
38262;SDS011;24054;50.128;19.730;2022-11-13T02:09:21;42.72;;;23.33;;
38262;SDS011;24054;50.128;19.730;2022-11-13T02:11:53;39.13;;;23.00;;
38262;SDS011;24054;50.128;19.730;2022-11-13T02:14:21;39.22;;;24.05;;
38262;SDS011;24054;50.128;19.730;2022-11-13T02:16:51;39.67;;;23.83;;
38262;SDS011;24054;50.128;19.730;2022-11-13T02:19:24;40.58;;;24.83;;
38262;SDS011;24054;50.128;19.730;2022-11-13T02:21:55;42.80;;;24.52;;
38262;SDS011;24054;50.128;19.730;2022-11-13T02:24:31;36.28;;;22.95;;
38262;SDS011;24054;50.128;19.730;2022-11-13T02:27:03;36.83;;;22.45;;
38262;SDS011;24054;50.128;19.730;2022-11-13T02:29:32;36.33;;;22.30;;
38262;SDS011;24054;50.128;19.730;2022-11-13T02:31:59;34.97;;;21.67;;
38262;SDS011;24054;50.128;19.730;2022-11-13T02:34:26;40.30;;;22.77;;
38262;SDS011;24054;50.128;19.730;2022-11-13T02:36:53;36.42;;;21.27;;
38262;SDS011;24054;50.128;19.730;2022-11-13T02:39:20;35.42;;;22.38;;
38262;SDS011;24054;50.128;19.730;2022-11-13T02:41:48;36.25;;;22.67;;
38262;SDS011;24054;50.128;19.730;2022-11-13T02:44:15;36.17;;;21.00;;
38262;SDS011;24054;50.128;19.730;2022-11-13T02:46:42;35.97;;;21.77;;
38262;SDS011;24054;50.128;19.730;2022-11-13T02:49:09;37.75;;;21.70;;
38262;SDS011;24054;50.128;19.730;2022-11-13T02:51:36;38.33;;;21.75;;
38262;SDS011;24054;50.128;19.730;2022-11-13T02:54:03;35.85;;;22.48;;
38262;SDS011;24054;50.128;19.730;2022-11-13T02:56:30;33.58;;;21.65;;
38262;SDS011;24054;50.128;19.730;2022-11-13T02:58:59;33.40;;;20.50;;
38262;SDS011;24054;50.128;19.730;2022-11-13T03:01:26;32.83;;;20.08;;
38262;SDS011;24054;50.128;19.730;2022-11-13T03:03:53;30.20;;;20.13;;
38262;SDS011;24054;50.128;19.730;2022-11-13T03:06:20;35.22;;;20.52;;
38262;SDS011;24054;50.128;19.730;2022-11-13T03:08:47;34.50;;;21.02;;
38262;SDS011;24054;50.128;19.730;2022-11-13T03:11:14;31.00;;;19.80;;
38262;SDS011;24054;50.128;19.730;2022-11-13T03:13:41;35.85;;;21.48;;
38262;SDS011;24054;50.128;19.730;2022-11-13T03:16:10;34.05;;;20.27;;
38262;SDS011;24054;50.128;19.730;2022-11-13T03:18:39;31.30;;;19.80;;
38262;SDS011;24054;50.128;19.730;2022-11-13T03:21:06;32.90;;;20.02;;
38262;SDS011;24054;50.128;19.730;2022-11-13T03:26:02;31.15;;;19.40;;
38262;SDS011;24054;50.128;19.730;2022-11-13T03:28:30;30.48;;;20.02;;
38262;SDS011;24054;50.128;19.730;2022-11-13T03:30:58;27.98;;;18.42;;
38262;SDS011;24054;50.128;19.730;2022-11-13T03:33:26;29.23;;;18.50;;
38262;SDS011;24054;50.128;19.730;2022-11-13T03:35:53;29.92;;;19.63;;
38262;SDS011;24054;50.128;19.730;2022-11-13T03:38:20;31.52;;;18.65;;
38262;SDS011;24054;50.128;19.730;2022-11-13T03:40:47;28.23;;;19.67;;
38262;SDS011;24054;50.128;19.730;2022-11-13T03:43:15;30.02;;;19.08;;
38262;SDS011;24054;50.128;19.730;2022-11-13T03:45:43;29.65;;;18.63;;
38262;SDS011;24054;50.128;19.730;2022-11-13T03:48:10;25.08;;;17.80;;
38262;SDS011;24054;50.128;19.730;2022-11-13T03:50:39;27.52;;;18.10;;
38262;SDS011;24054;50.128;19.730;2022-11-13T03:53:08;29.20;;;17.40;;
38262;SDS011;24054;50.128;19.730;2022-11-13T03:55:35;31.35;;;19.95;;
38262;SDS011;24054;50.128;19.730;2022-11-13T03:58:03;26.25;;;17.90;;
38262;SDS011;24054;50.128;19.730;2022-11-13T04:00:30;28.52;;;18.77;;
38262;SDS011;24054;50.128;19.730;2022-11-13T04:02:57;26.13;;;17.25;;
38262;SDS011;24054;50.128;19.730;2022-11-13T04:05:24;28.25;;;17.58;;
38262;SDS011;24054;50.128;19.730;2022-11-13T04:07:54;27.17;;;18.02;;
38262;SDS011;24054;50.128;19.730;2022-11-13T04:10:21;26.42;;;16.77;;
38262;SDS011;24054;50.128;19.730;2022-11-13T04:12:49;27.42;;;18.45;;
38262;SDS011;24054;50.128;19.730;2022-11-13T04:15:16;26.15;;;16.80;;
38262;SDS011;24054;50.128;19.730;2022-11-13T04:17:43;30.00;;;18.17;;
38262;SDS011;24054;50.128;19.730;2022-11-13T04:20:10;23.85;;;16.52;;
38262;SDS011;24054;50.128;19.730;2022-11-13T04:22:37;26.77;;;17.17;;
38262;SDS011;24054;50.128;19.730;2022-11-13T04:25:06;25.42;;;17.30;;
38262;SDS011;24054;50.128;19.730;2022-11-13T04:27:34;26.42;;;17.33;;
38262;SDS011;24054;50.128;19.730;2022-11-13T04:30:01;24.42;;;16.90;;
38262;SDS011;24054;50.128;19.730;2022-11-13T04:32:28;25.75;;;16.83;;
38262;SDS011;24054;50.128;19.730;2022-11-13T04:34:56;25.23;;;16.98;;
38262;SDS011;24054;50.128;19.730;2022-11-13T04:37:23;23.80;;;15.95;;
38262;SDS011;24054;50.128;19.730;2022-11-13T04:39:50;25.38;;;16.33;;
38262;SDS011;24054;50.128;19.730;2022-11-13T04:42:18;25.55;;;17.60;;
38262;SDS011;24054;50.128;19.730;2022-11-13T04:45:03;24.42;;;16.75;;
38262;SDS011;24054;50.128;19.730;2022-11-13T04:47:31;23.95;;;16.23;;
38262;SDS011;24054;50.128;19.730;2022-11-13T04:49:58;25.55;;;17.48;;
38262;SDS011;24054;50.128;19.730;2022-11-13T04:52:25;25.75;;;17.88;;
38262;SDS011;24054;50.128;19.730;2022-11-13T04:54:52;25.92;;;16.10;;
38262;SDS011;24054;50.128;19.730;2022-11-13T04:57:21;24.88;;;16.63;;
38262;SDS011;24054;50.128;19.730;2022-11-13T04:59:48;22.85;;;16.40;;
38262;SDS011;24054;50.128;19.730;2022-11-13T05:02:15;24.85;;;17.00;;
38262;SDS011;24054;50.128;19.730;2022-11-13T05:04:42;22.98;;;15.65;;
38262;SDS011;24054;50.128;19.730;2022-11-13T05:07:09;26.27;;;16.25;;
38262;SDS011;24054;50.128;19.730;2022-11-13T05:09:36;22.77;;;16.13;;
38262;SDS011;24054;50.128;19.730;2022-11-13T05:12:03;23.98;;;16.50;;
38262;SDS011;24054;50.128;19.730;2022-11-13T05:14:33;20.73;;;15.48;;
38262;SDS011;24054;50.128;19.730;2022-11-13T05:17:00;23.85;;;16.58;;
38262;SDS011;24054;50.128;19.730;2022-11-13T05:19:27;21.40;;;15.50;;
38262;SDS011;24054;50.128;19.730;2022-11-13T05:21:54;20.92;;;15.40;;
38262;SDS011;24054;50.128;19.730;2022-11-13T05:24:21;23.27;;;14.95;;
38262;SDS011;24054;50.128;19.730;2022-11-13T05:26:48;21.73;;;14.90;;
38262;SDS011;24054;50.128;19.730;2022-11-13T05:29:16;22.17;;;15.40;;
38262;SDS011;24054;50.128;19.730;2022-11-13T05:31:44;22.42;;;15.55;;
38262;SDS011;24054;50.128;19.730;2022-11-13T05:34:12;22.92;;;16.08;;
38262;SDS011;24054;50.128;19.730;2022-11-13T05:36:40;18.90;;;14.32;;
38262;SDS011;24054;50.128;19.730;2022-11-13T05:39:07;20.90;;;14.57;;
38262;SDS011;24054;50.128;19.730;2022-11-13T05:41:34;22.52;;;14.93;;
38262;SDS011;24054;50.128;19.730;2022-11-13T05:44:01;23.52;;;16.25;;
38262;SDS011;24054;50.128;19.730;2022-11-13T05:46:28;20.48;;;14.52;;
38262;SDS011;24054;50.128;19.730;2022-11-13T05:48:57;21.35;;;15.18;;
38262;SDS011;24054;50.128;19.730;2022-11-13T05:51:26;20.58;;;14.38;;
38262;SDS011;24054;50.128;19.730;2022-11-13T05:53:54;22.00;;;14.68;;
38262;SDS011;24054;50.128;19.730;2022-11-13T05:56:22;23.23;;;14.68;;
38262;SDS011;24054;50.128;19.730;2022-11-13T05:58:51;20.45;;;15.23;;
38262;SDS011;24054;50.128;19.730;2022-11-13T06:01:20;20.60;;;14.65;;
38262;SDS011;24054;50.128;19.730;2022-11-13T06:03:49;24.05;;;14.90;;
38262;SDS011;24054;50.128;19.730;2022-11-13T06:06:19;20.70;;;14.50;;
38262;SDS011;24054;50.128;19.730;2022-11-13T06:08:47;20.63;;;14.25;;
38262;SDS011;24054;50.128;19.730;2022-11-13T06:11:15;19.52;;;14.13;;
38262;SDS011;24054;50.128;19.730;2022-11-13T06:13:43;19.77;;;14.02;;
38262;SDS011;24054;50.128;19.730;2022-11-13T06:16:11;18.02;;;13.57;;
38262;SDS011;24054;50.128;19.730;2022-11-13T06:18:40;18.52;;;13.48;;
38262;SDS011;24054;50.128;19.730;2022-11-13T06:23:38;18.85;;;14.05;;
38262;SDS011;24054;50.128;19.730;2022-11-13T06:26:06;20.63;;;13.80;;
38262;SDS011;24054;50.128;19.730;2022-11-13T06:28:35;19.52;;;14.23;;
38262;SDS011;24054;50.128;19.730;2022-11-13T06:31:02;18.88;;;12.63;;
38262;SDS011;24054;50.128;19.730;2022-11-13T06:33:30;17.30;;;12.60;;
38262;SDS011;24054;50.128;19.730;2022-11-13T06:35:57;17.98;;;12.90;;
38262;SDS011;24054;50.128;19.730;2022-11-13T06:38:28;17.35;;;12.55;;
38262;SDS011;24054;50.128;19.730;2022-11-13T06:40:58;18.90;;;13.32;;
38262;SDS011;24054;50.128;19.730;2022-11-13T06:45:52;20.00;;;12.73;;
38262;SDS011;24054;50.128;19.730;2022-11-13T06:48:19;17.70;;;13.00;;
38262;SDS011;24054;50.128;19.730;2022-11-13T06:50:46;18.75;;;12.65;;
38262;SDS011;24054;50.128;19.730;2022-11-13T06:53:13;18.20;;;12.90;;
38262;SDS011;24054;50.128;19.730;2022-11-13T06:55:41;18.00;;;13.05;;
38262;SDS011;24054;50.128;19.730;2022-11-13T06:58:11;17.25;;;13.10;;
38262;SDS011;24054;50.128;19.730;2022-11-13T07:00:38;18.15;;;12.90;;
38262;SDS011;24054;50.128;19.730;2022-11-13T07:03:05;17.52;;;12.75;;
38262;SDS011;24054;50.128;19.730;2022-11-13T07:05:40;15.98;;;12.27;;
38262;SDS011;24054;50.128;19.730;2022-11-13T07:08:07;17.63;;;12.52;;
38262;SDS011;24054;50.128;19.730;2022-11-13T07:10:36;16.02;;;12.43;;
38262;SDS011;24054;50.128;19.730;2022-11-13T07:13:04;15.85;;;11.88;;
38262;SDS011;24054;50.128;19.730;2022-11-13T07:15:33;16.17;;;11.73;;
38262;SDS011;24054;50.128;19.730;2022-11-13T07:18:00;15.68;;;11.98;;
38262;SDS011;24054;50.128;19.730;2022-11-13T07:20:28;17.80;;;13.00;;
38262;SDS011;24054;50.128;19.730;2022-11-13T07:22:55;16.70;;;12.88;;
38262;SDS011;24054;50.128;19.730;2022-11-13T07:25:22;14.60;;;11.90;;
38262;SDS011;24054;50.128;19.730;2022-11-13T07:27:50;17.25;;;12.40;;
38262;SDS011;24054;50.128;19.730;2022-11-13T07:30:17;15.90;;;12.45;;
38262;SDS011;24054;50.128;19.730;2022-11-13T07:32:46;15.83;;;11.60;;
38262;SDS011;24054;50.128;19.730;2022-11-13T07:35:13;17.50;;;12.88;;
38262;SDS011;24054;50.128;19.730;2022-11-13T07:37:41;16.33;;;12.02;;
38262;SDS011;24054;50.128;19.730;2022-11-13T07:40:09;18.00;;;12.00;;
38262;SDS011;24054;50.128;19.730;2022-11-13T07:42:37;18.75;;;11.98;;
38262;SDS011;24054;50.128;19.730;2022-11-13T07:45:04;15.80;;;11.60;;
38262;SDS011;24054;50.128;19.730;2022-11-13T07:47:32;16.60;;;12.70;;
38262;SDS011;24054;50.128;19.730;2022-11-13T07:50:03;16.92;;;12.25;;
38262;SDS011;24054;50.128;19.730;2022-11-13T07:52:30;16.70;;;11.52;;
38262;SDS011;24054;50.128;19.730;2022-11-13T07:54:57;17.35;;;12.68;;
38262;SDS011;24054;50.128;19.730;2022-11-13T07:57:24;16.83;;;11.77;;
38262;SDS011;24054;50.128;19.730;2022-11-13T07:59:51;16.52;;;11.30;;
38262;SDS011;24054;50.128;19.730;2022-11-13T08:02:18;15.52;;;11.63;;
38262;SDS011;24054;50.128;19.730;2022-11-13T08:04:45;15.18;;;11.73;;
38262;SDS011;24054;50.128;19.730;2022-11-13T08:07:13;15.25;;;11.63;;
38262;SDS011;24054;50.128;19.730;2022-11-13T08:09:40;14.68;;;11.15;;
38262;SDS011;24054;50.128;19.730;2022-11-13T08:12:07;14.40;;;11.35;;
38262;SDS011;24054;50.128;19.730;2022-11-13T08:14:34;16.05;;;11.25;;
38262;SDS011;24054;50.128;19.730;2022-11-13T08:17:01;17.17;;;11.82;;
38262;SDS011;24054;50.128;19.730;2022-11-13T08:19:28;14.55;;;11.40;;
38262;SDS011;24054;50.128;19.730;2022-11-13T08:21:55;14.38;;;10.80;;
38262;SDS011;24054;50.128;19.730;2022-11-13T08:24:23;16.27;;;11.27;;
38262;SDS011;24054;50.128;19.730;2022-11-13T08:26:50;14.90;;;10.63;;
38262;SDS011;24054;50.128;19.730;2022-11-13T08:29:17;14.65;;;11.18;;
38262;SDS011;24054;50.128;19.730;2022-11-13T08:31:44;16.52;;;11.27;;
38262;SDS011;24054;50.128;19.730;2022-11-13T08:34:11;14.85;;;11.57;;
38262;SDS011;24054;50.128;19.730;2022-11-13T08:36:39;15.70;;;11.07;;
38262;SDS011;24054;50.128;19.730;2022-11-13T08:39:07;16.33;;;11.88;;
38262;SDS011;24054;50.128;19.730;2022-11-13T08:41:36;13.73;;;11.23;;
38262;SDS011;24054;50.128;19.730;2022-11-13T08:44:03;14.73;;;10.98;;
38262;SDS011;24054;50.128;19.730;2022-11-13T08:46:30;15.77;;;12.02;;
38262;SDS011;24054;50.128;19.730;2022-11-13T08:48:57;14.55;;;11.27;;
38262;SDS011;24054;50.128;19.730;2022-11-13T08:51:24;15.30;;;12.13;;
38262;SDS011;24054;50.128;19.730;2022-11-13T08:53:51;15.98;;;11.68;;
38262;SDS011;24054;50.128;19.730;2022-11-13T08:56:18;16.38;;;11.52;;
38262;SDS011;24054;50.128;19.730;2022-11-13T08:58:46;14.70;;;11.38;;
38262;SDS011;24054;50.128;19.730;2022-11-13T09:01:13;15.75;;;11.32;;
38262;SDS011;24054;50.128;19.730;2022-11-13T09:03:41;14.52;;;11.18;;
38262;SDS011;24054;50.128;19.730;2022-11-13T09:06:08;16.70;;;11.63;;
38262;SDS011;24054;50.128;19.730;2022-11-13T09:08:35;14.07;;;11.25;;
38262;SDS011;24054;50.128;19.730;2022-11-13T09:11:02;16.65;;;11.70;;
38262;SDS011;24054;50.128;19.730;2022-11-13T09:13:30;22.87;;;12.37;;
38262;SDS011;24054;50.128;19.730;2022-11-13T09:15:58;17.05;;;12.75;;
38262;SDS011;24054;50.128;19.730;2022-11-13T09:18:26;18.80;;;12.98;;
38262;SDS011;24054;50.128;19.730;2022-11-13T09:20:53;19.80;;;12.23;;
38262;SDS011;24054;50.128;19.730;2022-11-13T09:23:20;15.75;;;12.02;;
38262;SDS011;24054;50.128;19.730;2022-11-13T09:25:47;14.48;;;11.10;;
38262;SDS011;24054;50.128;19.730;2022-11-13T09:28:15;19.05;;;12.23;;
38262;SDS011;24054;50.128;19.730;2022-11-13T09:30:42;20.52;;;12.55;;
38262;SDS011;24054;50.128;19.730;2022-11-13T09:33:11;16.25;;;11.80;;
38262;SDS011;24054;50.128;19.730;2022-11-13T09:35:39;20.15;;;12.95;;
38262;SDS011;24054;50.128;19.730;2022-11-13T09:38:08;16.58;;;12.23;;
38262;SDS011;24054;50.128;19.730;2022-11-13T09:40:40;18.83;;;12.48;;
38262;SDS011;24054;50.128;19.730;2022-11-13T09:43:14;22.63;;;12.95;;
38262;SDS011;24054;50.128;19.730;2022-11-13T09:45:48;23.77;;;12.65;;
38262;SDS011;24054;50.128;19.730;2022-11-13T09:48:22;20.83;;;12.30;;
38262;SDS011;24054;50.128;19.730;2022-11-13T09:50:56;18.98;;;12.48;;
38262;SDS011;24054;50.128;19.730;2022-11-13T09:53:33;18.23;;;12.10;;
38262;SDS011;24054;50.128;19.730;2022-11-13T09:56:08;25.85;;;14.35;;
38262;SDS011;24054;50.128;19.730;2022-11-13T09:58:45;32.75;;;18.52;;
38262;SDS011;24054;50.128;19.730;2022-11-13T10:01:21;57.08;;;24.70;;
38262;SDS011;24054;50.128;19.730;2022-11-13T10:03:54;76.82;;;33.35;;
38262;SDS011;24054;50.128;19.730;2022-11-13T10:06:30;87.85;;;39.20;;
38262;SDS011;24054;50.128;19.730;2022-11-13T10:09:08;121.88;;;49.75;;
38262;SDS011;24054;50.128;19.730;2022-11-13T10:11:45;111.65;;;47.70;;
38262;SDS011;24054;50.128;19.730;2022-11-13T10:14:16;94.00;;;44.35;;
38262;SDS011;24054;50.128;19.730;2022-11-13T10:16:47;90.55;;;42.08;;
38262;SDS011;24054;50.128;19.730;2022-11-13T10:19:20;85.97;;;39.10;;
38262;SDS011;24054;50.128;19.730;2022-11-13T10:21:53;91.70;;;40.10;;
38262;SDS011;24054;50.128;19.730;2022-11-13T10:24:26;87.13;;;38.80;;
38262;SDS011;24054;50.128;19.730;2022-11-13T10:26:56;83.20;;;38.58;;
38262;SDS011;24054;50.128;19.730;2022-11-13T10:29:25;80.05;;;37.72;;
38262;SDS011;24054;50.128;19.730;2022-11-13T10:32:13;82.18;;;36.03;;
38262;SDS011;24054;50.128;19.730;2022-11-13T10:34:45;84.63;;;37.13;;
38262;SDS011;24054;50.128;19.730;2022-11-13T10:37:20;73.60;;;33.80;;
38262;SDS011;24054;50.128;19.730;2022-11-13T10:39:55;73.28;;;35.17;;
38262;SDS011;24054;50.128;19.730;2022-11-13T10:42:23;73.68;;;34.30;;
38262;SDS011;24054;50.128;19.730;2022-11-13T10:44:55;61.53;;;33.47;;
38262;SDS011;24054;50.128;19.730;2022-11-13T10:47:24;65.85;;;33.53;;
38262;SDS011;24054;50.128;19.730;2022-11-13T10:49:55;63.50;;;31.85;;
38262;SDS011;24054;50.128;19.730;2022-11-13T10:52:22;71.68;;;34.70;;
38262;SDS011;24054;50.128;19.730;2022-11-13T10:55:03;77.90;;;33.25;;
38262;SDS011;24054;50.128;19.730;2022-11-13T10:57:37;66.85;;;30.65;;
38262;SDS011;24054;50.128;19.730;2022-11-13T11:00:17;72.28;;;31.52;;
38262;SDS011;24054;50.128;19.730;2022-11-13T11:02:47;66.30;;;33.70;;
38262;SDS011;24054;50.128;19.730;2022-11-13T11:05:19;65.43;;;31.45;;
38262;SDS011;24054;50.128;19.730;2022-11-13T11:07:48;67.60;;;31.85;;
38262;SDS011;24054;50.128;19.730;2022-11-13T11:10:18;67.50;;;31.40;;
38262;SDS011;24054;50.128;19.730;2022-11-13T11:12:52;70.13;;;31.50;;
38262;SDS011;24054;50.128;19.730;2022-11-13T11:15:22;68.10;;;33.28;;
38262;SDS011;24054;50.128;19.730;2022-11-13T11:17:53;64.30;;;31.85;;
38262;SDS011;24054;50.128;19.730;2022-11-13T11:20:31;67.55;;;32.60;;
38262;SDS011;24054;50.128;19.730;2022-11-13T11:23:13;66.70;;;30.63;;
38262;SDS011;24054;50.128;19.730;2022-11-13T11:25:46;54.88;;;29.52;;
38262;SDS011;24054;50.128;19.730;2022-11-13T11:28:19;69.47;;;31.92;;
38262;SDS011;24054;50.128;19.730;2022-11-13T11:30:54;60.88;;;31.05;;
38262;SDS011;24054;50.128;19.730;2022-11-13T11:33:26;66.28;;;32.30;;
38262;SDS011;24054;50.128;19.730;2022-11-13T11:36:01;55.13;;;30.05;;
38262;SDS011;24054;50.128;19.730;2022-11-13T11:38:34;56.60;;;30.25;;
38262;SDS011;24054;50.128;19.730;2022-11-13T11:41:11;55.63;;;29.17;;
38262;SDS011;24054;50.128;19.730;2022-11-13T11:43:40;56.50;;;29.38;;
38262;SDS011;24054;50.128;19.730;2022-11-13T11:46:10;60.95;;;30.92;;
38262;SDS011;24054;50.128;19.730;2022-11-13T11:48:38;68.35;;;33.30;;
38262;SDS011;24054;50.128;19.730;2022-11-13T11:51:12;57.28;;;28.60;;
38262;SDS011;24054;50.128;19.730;2022-11-13T11:53:51;57.30;;;29.60;;
38262;SDS011;24054;50.128;19.730;2022-11-13T11:56:26;51.97;;;29.77;;
38262;SDS011;24054;50.128;19.730;2022-11-13T11:59:01;50.38;;;26.52;;
38262;SDS011;24054;50.128;19.730;2022-11-13T12:01:48;54.70;;;27.58;;
38262;SDS011;24054;50.128;19.730;2022-11-13T12:04:30;53.47;;;28.92;;
38262;SDS011;24054;50.128;19.730;2022-11-13T12:07:13;55.38;;;28.90;;
38262;SDS011;24054;50.128;19.730;2022-11-13T12:09:55;59.50;;;31.30;;
38262;SDS011;24054;50.128;19.730;2022-11-13T12:12:34;55.78;;;28.05;;
38262;SDS011;24054;50.128;19.730;2022-11-13T12:15:16;50.45;;;28.27;;
38262;SDS011;24054;50.128;19.730;2022-11-13T12:17:52;51.70;;;26.48;;
38262;SDS011;24054;50.128;19.730;2022-11-13T12:20:29;50.15;;;26.38;;
38262;SDS011;24054;50.128;19.730;2022-11-13T12:23:07;49.03;;;26.83;;
38262;SDS011;24054;50.128;19.730;2022-11-13T12:25:45;51.10;;;27.98;;
38262;SDS011;24054;50.128;19.730;2022-11-13T12:28:17;47.83;;;26.75;;
38262;SDS011;24054;50.128;19.730;2022-11-13T12:30:50;47.72;;;25.20;;
38262;SDS011;24054;50.128;19.730;2022-11-13T12:33:27;47.22;;;26.83;;
38262;SDS011;24054;50.128;19.730;2022-11-13T12:38:33;55.35;;;27.00;;
38262;SDS011;24054;50.128;19.730;2022-11-13T12:41:09;51.10;;;25.88;;
38262;SDS011;24054;50.128;19.730;2022-11-13T12:43:52;45.17;;;26.00;;
38262;SDS011;24054;50.128;19.730;2022-11-13T12:46:40;48.55;;;25.05;;
38262;SDS011;24054;50.128;19.730;2022-11-13T12:49:15;45.40;;;25.45;;
38262;SDS011;24054;50.128;19.730;2022-11-13T12:51:54;47.97;;;25.73;;
38262;SDS011;24054;50.128;19.730;2022-11-13T12:54:28;47.75;;;25.63;;
38262;SDS011;24054;50.128;19.730;2022-11-13T12:57:06;39.33;;;23.15;;
38262;SDS011;24054;50.128;19.730;2022-11-13T12:59:43;45.03;;;24.38;;
38262;SDS011;24054;50.128;19.730;2022-11-13T13:02:29;38.65;;;23.55;;
38262;SDS011;24054;50.128;19.730;2022-11-13T13:05:17;40.67;;;24.73;;
38262;SDS011;24054;50.128;19.730;2022-11-13T13:07:53;47.40;;;29.30;;
38262;SDS011;24054;50.128;19.730;2022-11-13T13:10:43;43.80;;;27.17;;
38262;SDS011;24054;50.128;19.730;2022-11-13T13:13:23;43.25;;;25.17;;
38262;SDS011;24054;50.128;19.730;2022-11-13T13:15:57;44.45;;;25.63;;
38262;SDS011;24054;50.128;19.730;2022-11-13T13:18:27;40.65;;;25.33;;
38262;SDS011;24054;50.128;19.730;2022-11-13T13:21:00;42.17;;;25.20;;
38262;SDS011;24054;50.128;19.730;2022-11-13T13:23:33;42.30;;;26.05;;
38262;SDS011;24054;50.128;19.730;2022-11-13T13:26:05;43.58;;;25.40;;
38262;SDS011;24054;50.128;19.730;2022-11-13T13:28:40;37.28;;;22.55;;
38262;SDS011;24054;50.128;19.730;2022-11-13T13:31:13;36.15;;;22.60;;
38262;SDS011;24054;50.128;19.730;2022-11-13T13:33:50;33.10;;;21.00;;
38262;SDS011;24054;50.128;19.730;2022-11-13T13:36:29;38.83;;;23.40;;
38262;SDS011;24054;50.128;19.730;2022-11-13T13:39:05;38.70;;;21.48;;
38262;SDS011;24054;50.128;19.730;2022-11-13T13:41:47;36.22;;;21.77;;
38262;SDS011;24054;50.128;19.730;2022-11-13T13:44:31;35.13;;;22.20;;
38262;SDS011;24054;50.128;19.730;2022-11-13T13:47:09;36.20;;;21.30;;
38262;SDS011;24054;50.128;19.730;2022-11-13T13:49:53;37.53;;;22.38;;
38262;SDS011;24054;50.128;19.730;2022-11-13T13:52:22;36.33;;;21.00;;
38262;SDS011;24054;50.128;19.730;2022-11-13T13:54:56;35.35;;;21.95;;
38262;SDS011;24054;50.128;19.730;2022-11-13T13:57:27;30.67;;;20.52;;
38262;SDS011;24054;50.128;19.730;2022-11-13T13:59:58;34.38;;;21.55;;
38262;SDS011;24054;50.128;19.730;2022-11-13T14:02:27;33.42;;;21.10;;
38262;SDS011;24054;50.128;19.730;2022-11-13T14:04:54;34.00;;;20.63;;
38262;SDS011;24054;50.128;19.730;2022-11-13T14:07:22;30.02;;;20.60;;
38262;SDS011;24054;50.128;19.730;2022-11-13T14:10:03;31.23;;;20.50;;
38262;SDS011;24054;50.128;19.730;2022-11-13T14:12:34;28.40;;;19.73;;
38262;SDS011;24054;50.128;19.730;2022-11-13T14:15:14;29.05;;;19.48;;
38262;SDS011;24054;50.128;19.730;2022-11-13T14:17:46;28.15;;;18.30;;
38262;SDS011;24054;50.128;19.730;2022-11-13T14:20:14;27.35;;;18.90;;
38262;SDS011;24054;50.128;19.730;2022-11-13T14:22:42;32.05;;;18.92;;
38262;SDS011;24054;50.128;19.730;2022-11-13T14:25:14;27.50;;;18.95;;
38262;SDS011;24054;50.128;19.730;2022-11-13T14:27:47;29.88;;;17.60;;
38262;SDS011;24054;50.128;19.730;2022-11-13T14:30:20;26.35;;;18.75;;
38262;SDS011;24054;50.128;19.730;2022-11-13T14:32:49;27.55;;;18.45;;
38262;SDS011;24054;50.128;19.730;2022-11-13T14:35:17;26.13;;;17.33;;